In Rescue
 
Open Full Screen Window  High Contrast Mode
Wind Gusting 15 knots
10
January 20, 2021 3:31 PM CST
Weather Information
Wind Direction
  220 °
Wind Speed
  10 kt (12 mph)
Wind Gust
  15 kt (17 mph)
Altimeter
29.29 in
Visibility
10 SM
Temperature
-02° C
28° F
Dewpoint
-06° C
21° F
Humidity
74%
1hr Rain Fall
00.00 in.
24hr Rain Fall
00.00 in.
Sky Condition
Overcast @ 3,500 ft
VFR

METAR KEVM 202131Z AUTO 22010G15KT 10SM OVC035 M02/M06 A2929 RMK AO2 T10171059

FAA Disclaimer: The data displayed is for advisory purposes only and is not to be used for flight planning or operations.